Stanberry, Missouri
Current Conditions -  °F | °C
As of 12:14 PM on Thursday 23 Oct 2014 (Local Time) from KSTJ Reporting Station
Overcast Overcast  
Wind Chill: 65°   Ceiling: 1400
Heat Index: 65°   Visibility: 10mi
Dew Point: 61°   Wind: 7mph
Humidity: 87%   Direction: 210°SSW
Pressure: 30.09"   Gusts: NA
Location:  40.22°N, 94.54°W
Report Text: KSTJ 231714Z 21006KT 10SM OVC014 18/16 A3009 RMK AO2 T01830161
Loading
Personal Weather Stations






























Interactive Weather Map
Tropical Storm Tracking
New forecast layout! Learn more

10-Day Weather Forecast

Advertisements
Track Severe Weather on mobile